sensor_id;sensor_type;location;lat;lon;timestamp;P1;durP1;ratioP1;P2;durP2;ratioP2
45842;SDS011;31563;51.744;8.252;2023-04-30T00:00:49;2.03;;;1.60;;
45842;SDS011;31563;51.744;8.252;2023-04-30T00:03:17;2.97;;;1.75;;
45842;SDS011;31563;51.744;8.252;2023-04-30T00:05:48;2.53;;;1.42;;
45842;SDS011;31563;51.744;8.252;2023-04-30T00:08:17;2.38;;;1.50;;
45842;SDS011;31563;51.744;8.252;2023-04-30T00:10:45;2.42;;;1.70;;
45842;SDS011;31563;51.744;8.252;2023-04-30T00:13:13;1.90;;;1.70;;
45842;SDS011;31563;51.744;8.252;2023-04-30T00:15:43;2.08;;;1.60;;
45842;SDS011;31563;51.744;8.252;2023-04-30T00:18:11;1.70;;;1.58;;
45842;SDS011;31563;51.744;8.252;2023-04-30T00:20:39;1.45;;;1.35;;
45842;SDS011;31563;51.744;8.252;2023-04-30T00:23:07;1.67;;;1.30;;
45842;SDS011;31563;51.744;8.252;2023-04-30T00:25:35;1.85;;;1.60;;
45842;SDS011;31563;51.744;8.252;2023-04-30T00:28:04;1.30;;;1.20;;
45842;SDS011;31563;51.744;8.252;2023-04-30T00:30:32;1.83;;;1.50;;
45842;SDS011;31563;51.744;8.252;2023-04-30T00:33:01;2.50;;;1.48;;
45842;SDS011;31563;51.744;8.252;2023-04-30T00:35:30;3.10;;;1.40;;
45842;SDS011;31563;51.744;8.252;2023-04-30T00:37:59;1.70;;;1.60;;
45842;SDS011;31563;51.744;8.252;2023-04-30T00:40:27;1.70;;;1.25;;
45842;SDS011;31563;51.744;8.252;2023-04-30T00:42:56;1.85;;;1.55;;
45842;SDS011;31563;51.744;8.252;2023-04-30T00:45:24;1.70;;;1.60;;
45842;SDS011;31563;51.744;8.252;2023-04-30T00:47:52;1.85;;;1.60;;
45842;SDS011;31563;51.744;8.252;2023-04-30T00:50:22;1.70;;;1.52;;
45842;SDS011;31563;51.744;8.252;2023-04-30T00:52:51;1.52;;;1.42;;
45842;SDS011;31563;51.744;8.252;2023-04-30T00:55:19;1.90;;;1.60;;
45842;SDS011;31563;51.744;8.252;2023-04-30T00:57:48;1.73;;;1.63;;
45842;SDS011;31563;51.744;8.252;2023-04-30T01:00:16;2.03;;;1.65;;
45842;SDS011;31563;51.744;8.252;2023-04-30T01:02:44;1.58;;;1.40;;
45842;SDS011;31563;51.744;8.252;2023-04-30T01:05:13;1.50;;;1.40;;
45842;SDS011;31563;51.744;8.252;2023-04-30T01:07:42;1.55;;;1.30;;
45842;SDS011;31563;51.744;8.252;2023-04-30T01:10:12;2.05;;;1.65;;
45842;SDS011;31563;51.744;8.252;2023-04-30T01:12:43;2.30;;;1.60;;
45842;SDS011;31563;51.744;8.252;2023-04-30T01:15:21;4.15;;;3.50;;
45842;SDS011;31563;51.744;8.252;2023-04-30T01:17:55;6.13;;;4.47;;
45842;SDS011;31563;51.744;8.252;2023-04-30T01:20:27;4.03;;;3.33;;
45842;SDS011;31563;51.744;8.252;2023-04-30T01:23:01;3.05;;;2.50;;
45842;SDS011;31563;51.744;8.252;2023-04-30T01:25:50;3.58;;;2.35;;
45842;SDS011;31563;51.744;8.252;2023-04-30T01:28:28;2.53;;;2.20;;
45842;SDS011;31563;51.744;8.252;2023-04-30T01:30:57;4.03;;;2.50;;
45842;SDS011;31563;51.744;8.252;2023-04-30T01:33:25;3.00;;;2.50;;
45842;SDS011;31563;51.744;8.252;2023-04-30T01:41:56;2.00;;;1.77;;
45842;SDS011;31563;51.744;8.252;2023-04-30T01:44:40;3.35;;;1.73;;
45842;SDS011;31563;51.744;8.252;2023-04-30T01:47:17;2.13;;;1.80;;
45842;SDS011;31563;51.744;8.252;2023-04-30T01:49:54;2.45;;;1.95;;
45842;SDS011;31563;51.744;8.252;2023-04-30T01:52:30;2.10;;;1.85;;
45842;SDS011;31563;51.744;8.252;2023-04-30T01:55:07;2.47;;;1.85;;
45842;SDS011;31563;51.744;8.252;2023-04-30T01:57:41;2.42;;;1.70;;
45842;SDS011;31563;51.744;8.252;2023-04-30T02:00:14;2.15;;;1.58;;
45842;SDS011;31563;51.744;8.252;2023-04-30T02:02:43;2.55;;;1.60;;
45842;SDS011;31563;51.744;8.252;2023-04-30T02:05:11;2.80;;;1.75;;
45842;SDS011;31563;51.744;8.252;2023-04-30T02:07:40;1.58;;;1.48;;
45842;SDS011;31563;51.744;8.252;2023-04-30T02:12:38;2.05;;;1.70;;
45842;SDS011;31563;51.744;8.252;2023-04-30T02:15:07;1.95;;;1.40;;
45842;SDS011;31563;51.744;8.252;2023-04-30T02:17:37;1.60;;;1.40;;
45842;SDS011;31563;51.744;8.252;2023-04-30T02:20:07;1.58;;;1.48;;
45842;SDS011;31563;51.744;8.252;2023-04-30T02:22:36;2.47;;;1.58;;
45842;SDS011;31563;51.744;8.252;2023-04-30T02:25:04;2.08;;;1.60;;
45842;SDS011;31563;51.744;8.252;2023-04-30T02:27:33;1.73;;;1.48;;
45842;SDS011;31563;51.744;8.252;2023-04-30T02:30:01;2.38;;;1.27;;
45842;SDS011;31563;51.744;8.252;2023-04-30T02:32:30;1.40;;;1.10;;
45842;SDS011;31563;51.744;8.252;2023-04-30T02:35:00;2.10;;;1.55;;
45842;SDS011;31563;51.744;8.252;2023-04-30T02:37:28;1.48;;;1.35;;
45842;SDS011;31563;51.744;8.252;2023-04-30T02:39:56;1.70;;;1.60;;
45842;SDS011;31563;51.744;8.252;2023-04-30T02:42:24;2.00;;;1.52;;
45842;SDS011;31563;51.744;8.252;2023-04-30T02:44:52;1.52;;;1.40;;
45842;SDS011;31563;51.744;8.252;2023-04-30T02:47:21;2.08;;;1.40;;
45842;SDS011;31563;51.744;8.252;2023-04-30T02:49:49;1.92;;;1.50;;
45842;SDS011;31563;51.744;8.252;2023-04-30T02:52:19;1.77;;;1.40;;
45842;SDS011;31563;51.744;8.252;2023-04-30T02:57:16;1.98;;;1.35;;
45842;SDS011;31563;51.744;8.252;2023-04-30T02:59:44;1.60;;;1.30;;
45842;SDS011;31563;51.744;8.252;2023-04-30T03:02:12;2.40;;;1.27;;
45842;SDS011;31563;51.744;8.252;2023-04-30T03:04:40;1.90;;;1.40;;
45842;SDS011;31563;51.744;8.252;2023-04-30T03:07:09;1.45;;;1.00;;
45842;SDS011;31563;51.744;8.252;2023-04-30T03:09:38;1.75;;;1.35;;
45842;SDS011;31563;51.744;8.252;2023-04-30T03:12:06;1.52;;;1.30;;
45842;SDS011;31563;51.744;8.252;2023-04-30T03:14:34;1.48;;;1.38;;
45842;SDS011;31563;51.744;8.252;2023-04-30T03:17:03;1.65;;;1.48;;
45842;SDS011;31563;51.744;8.252;2023-04-30T03:19:31;1.92;;;1.17;;
45842;SDS011;31563;51.744;8.252;2023-04-30T03:21:59;2.42;;;1.20;;
45842;SDS011;31563;51.744;8.252;2023-04-30T03:24:27;1.25;;;1.15;;
45842;SDS011;31563;51.744;8.252;2023-04-30T03:26:57;1.75;;;1.15;;
45842;SDS011;31563;51.744;8.252;2023-04-30T03:29:27;1.63;;;1.10;;
45842;SDS011;31563;51.744;8.252;2023-04-30T03:31:55;1.50;;;1.30;;
45842;SDS011;31563;51.744;8.252;2023-04-30T03:34:23;2.38;;;1.40;;
45842;SDS011;31563;51.744;8.252;2023-04-30T03:36:52;1.30;;;1.10;;
45842;SDS011;31563;51.744;8.252;2023-04-30T03:39:20;1.63;;;1.00;;
45842;SDS011;31563;51.744;8.252;2023-04-30T03:41:48;1.48;;;1.10;;
45842;SDS011;31563;51.744;8.252;2023-04-30T03:44:17;2.47;;;1.35;;
45842;SDS011;31563;51.744;8.252;2023-04-30T03:46:46;1.10;;;1.00;;
45842;SDS011;31563;51.744;8.252;2023-04-30T03:49:14;1.25;;;1.08;;
45842;SDS011;31563;51.744;8.252;2023-04-30T03:51:42;1.45;;;1.20;;
45842;SDS011;31563;51.744;8.252;2023-04-30T03:54:10;1.33;;;1.20;;
45842;SDS011;31563;51.744;8.252;2023-04-30T03:56:38;1.63;;;1.40;;
45842;SDS011;31563;51.744;8.252;2023-04-30T03:59:08;1.83;;;1.20;;
45842;SDS011;31563;51.744;8.252;2023-04-30T04:01:37;1.35;;;1.25;;
45842;SDS011;31563;51.744;8.252;2023-04-30T04:04:06;1.48;;;1.27;;
45842;SDS011;31563;51.744;8.252;2023-04-30T04:06:35;1.30;;;1.10;;
45842;SDS011;31563;51.744;8.252;2023-04-30T04:09:03;1.67;;;1.33;;
45842;SDS011;31563;51.744;8.252;2023-04-30T04:11:31;1.13;;;1.02;;
45842;SDS011;31563;51.744;8.252;2023-04-30T04:13:59;1.48;;;1.35;;
45842;SDS011;31563;51.744;8.252;2023-04-30T04:16:28;1.08;;;0.95;;
45842;SDS011;31563;51.744;8.252;2023-04-30T04:18:57;1.02;;;0.80;;
45842;SDS011;31563;51.744;8.252;2023-04-30T04:21:26;1.38;;;1.13;;
45842;SDS011;31563;51.744;8.252;2023-04-30T04:23:54;1.17;;;1.00;;
45842;SDS011;31563;51.744;8.252;2023-04-30T04:26:22;1.55;;;0.93;;
45842;SDS011;31563;51.744;8.252;2023-04-30T04:28:50;1.55;;;1.20;;
45842;SDS011;31563;51.744;8.252;2023-04-30T04:31:19;1.20;;;1.10;;
45842;SDS011;31563;51.744;8.252;2023-04-30T04:33:48;1.10;;;0.90;;
45842;SDS011;31563;51.744;8.252;2023-04-30T04:36:24;1.15;;;0.80;;
45842;SDS011;31563;51.744;8.252;2023-04-30T04:38:54;1.55;;;1.10;;
45842;SDS011;31563;51.744;8.252;2023-04-30T04:41:23;1.35;;;1.00;;
45842;SDS011;31563;51.744;8.252;2023-04-30T04:43:51;0.80;;;0.80;;
45842;SDS011;31563;51.744;8.252;2023-04-30T04:46:20;1.20;;;1.10;;
45842;SDS011;31563;51.744;8.252;2023-04-30T04:48:48;1.17;;;1.08;;
45842;SDS011;31563;51.744;8.252;2023-04-30T04:51:16;1.13;;;0.90;;
45842;SDS011;31563;51.744;8.252;2023-04-30T04:53:46;1.02;;;0.90;;
45842;SDS011;31563;51.744;8.252;2023-04-30T04:56:14;1.70;;;1.00;;
45842;SDS011;31563;51.744;8.252;2023-04-30T04:58:43;1.08;;;0.98;;
45842;SDS011;31563;51.744;8.252;2023-04-30T05:01:11;1.33;;;1.10;;
45842;SDS011;31563;51.744;8.252;2023-04-30T05:03:39;0.90;;;0.88;;
45842;SDS011;31563;51.744;8.252;2023-04-30T05:06:08;1.88;;;1.17;;
45842;SDS011;31563;51.744;8.252;2023-04-30T05:08:36;1.10;;;1.00;;
45842;SDS011;31563;51.744;8.252;2023-04-30T05:11:06;1.25;;;1.05;;
45842;SDS011;31563;51.744;8.252;2023-04-30T05:13:34;1.08;;;0.98;;
45842;SDS011;31563;51.744;8.252;2023-04-30T05:16:03;1.13;;;0.90;;
45842;SDS011;31563;51.744;8.252;2023-04-30T05:18:31;1.38;;;1.17;;
45842;SDS011;31563;51.744;8.252;2023-04-30T05:20:59;1.50;;;1.15;;
45842;SDS011;31563;51.744;8.252;2023-04-30T05:23:29;1.60;;;1.10;;
45842;SDS011;31563;51.744;8.252;2023-04-30T05:25:57;1.95;;;1.40;;
45842;SDS011;31563;51.744;8.252;2023-04-30T05:28:27;1.20;;;1.10;;
45842;SDS011;31563;51.744;8.252;2023-04-30T05:30:55;1.05;;;0.88;;
45842;SDS011;31563;51.744;8.252;2023-04-30T05:33:23;0.70;;;0.70;;
45842;SDS011;31563;51.744;8.252;2023-04-30T05:35:51;2.42;;;1.10;;
45842;SDS011;31563;51.744;8.252;2023-04-30T05:38:19;2.03;;;1.00;;
45842;SDS011;31563;51.744;8.252;2023-04-30T05:40:48;5.68;;;3.92;;
45842;SDS011;31563;51.744;8.252;2023-04-30T05:43:16;6.68;;;4.40;;
45842;SDS011;31563;51.744;8.252;2023-04-30T05:45:46;5.20;;;3.70;;
45842;SDS011;31563;51.744;8.252;2023-04-30T05:48:14;5.65;;;4.00;;
45842;SDS011;31563;51.744;8.252;2023-04-30T05:50:42;6.20;;;4.20;;
45842;SDS011;31563;51.744;8.252;2023-04-30T05:53:11;6.68;;;3.85;;
45842;SDS011;31563;51.744;8.252;2023-04-30T05:55:40;6.85;;;4.65;;
45842;SDS011;31563;51.744;8.252;2023-04-30T05:58:08;7.05;;;4.75;;
45842;SDS011;31563;51.744;8.252;2023-04-30T06:00:37;9.55;;;4.38;;
45842;SDS011;31563;51.744;8.252;2023-04-30T06:03:06;9.10;;;4.20;;
45842;SDS011;31563;51.744;8.252;2023-04-30T06:05:35;7.03;;;3.88;;
45842;SDS011;31563;51.744;8.252;2023-04-30T06:08:03;6.22;;;3.35;;
45842;SDS011;31563;51.744;8.252;2023-04-30T06:10:31;4.75;;;3.75;;
45842;SDS011;31563;51.744;8.252;2023-04-30T06:12:59;4.78;;;3.15;;
45842;SDS011;31563;51.744;8.252;2023-04-30T06:15:27;9.05;;;3.10;;
45842;SDS011;31563;51.744;8.252;2023-04-30T06:17:56;3.10;;;2.63;;
45842;SDS011;31563;51.744;8.252;2023-04-30T06:20:26;4.93;;;3.17;;
45842;SDS011;31563;51.744;8.252;2023-04-30T06:22:54;5.95;;;2.83;;
45842;SDS011;31563;51.744;8.252;2023-04-30T06:25:22;3.80;;;2.50;;
45842;SDS011;31563;51.744;8.252;2023-04-30T06:27:50;4.70;;;2.60;;
45842;SDS011;31563;51.744;8.252;2023-04-30T06:30:19;3.42;;;2.30;;
45842;SDS011;31563;51.744;8.252;2023-04-30T06:32:47;4.35;;;2.17;;
45842;SDS011;31563;51.744;8.252;2023-04-30T06:35:16;2.83;;;1.88;;
45842;SDS011;31563;51.744;8.252;2023-04-30T06:37:45;2.83;;;2.22;;
45842;SDS011;31563;51.744;8.252;2023-04-30T06:40:13;3.83;;;2.03;;
45842;SDS011;31563;51.744;8.252;2023-04-30T06:42:41;3.88;;;1.67;;
45842;SDS011;31563;51.744;8.252;2023-04-30T06:45:12;4.45;;;1.90;;
45842;SDS011;31563;51.744;8.252;2023-04-30T06:47:41;3.17;;;2.20;;
45842;SDS011;31563;51.744;8.252;2023-04-30T06:50:11;4.93;;;2.38;;
45842;SDS011;31563;51.744;8.252;2023-04-30T06:52:41;3.13;;;1.58;;
45842;SDS011;31563;51.744;8.252;2023-04-30T06:55:11;4.80;;;2.05;;
45842;SDS011;31563;51.744;8.252;2023-04-30T06:57:39;2.42;;;1.73;;
45842;SDS011;31563;51.744;8.252;2023-04-30T07:00:07;4.00;;;1.85;;
45842;SDS011;31563;51.744;8.252;2023-04-30T07:02:36;3.08;;;1.73;;
45842;SDS011;31563;51.744;8.252;2023-04-30T07:05:05;4.32;;;1.92;;
45842;SDS011;31563;51.744;8.252;2023-04-30T07:07:34;4.23;;;1.73;;
45842;SDS011;31563;51.744;8.252;2023-04-30T07:10:02;2.33;;;1.40;;
45842;SDS011;31563;51.744;8.252;2023-04-30T07:12:32;2.95;;;1.55;;
45842;SDS011;31563;51.744;8.252;2023-04-30T07:15:00;3.28;;;1.80;;
45842;SDS011;31563;51.744;8.252;2023-04-30T07:17:29;3.00;;;1.63;;
45842;SDS011;31563;51.744;8.252;2023-04-30T07:19:57;3.33;;;1.30;;
45842;SDS011;31563;51.744;8.252;2023-04-30T07:22:25;2.78;;;1.88;;
45842;SDS011;31563;51.744;8.252;2023-04-30T07:24:53;2.50;;;1.40;;
45842;SDS011;31563;51.744;8.252;2023-04-30T07:27:22;3.38;;;1.60;;
45842;SDS011;31563;51.744;8.252;2023-04-30T07:29:51;2.05;;;1.13;;
45842;SDS011;31563;51.744;8.252;2023-04-30T07:32:20;2.45;;;1.30;;
45842;SDS011;31563;51.744;8.252;2023-04-30T07:34:52;3.35;;;1.27;;
45842;SDS011;31563;51.744;8.252;2023-04-30T07:37:20;2.45;;;1.17;;
45842;SDS011;31563;51.744;8.252;2023-04-30T07:39:49;2.55;;;1.13;;
45842;SDS011;31563;51.744;8.252;2023-04-30T07:42:17;3.13;;;1.30;;
45842;SDS011;31563;51.744;8.252;2023-04-30T07:44:45;2.22;;;1.08;;
45842;SDS011;31563;51.744;8.252;2023-04-30T07:47:15;1.48;;;0.90;;
45842;SDS011;31563;51.744;8.252;2023-04-30T07:49:45;2.15;;;0.88;;
45842;SDS011;31563;51.744;8.252;2023-04-30T07:52:13;3.60;;;2.70;;
45842;SDS011;31563;51.744;8.252;2023-04-30T07:54:41;6.65;;;4.38;;
45842;SDS011;31563;51.744;8.252;2023-04-30T07:57:09;6.10;;;4.15;;
45842;SDS011;31563;51.744;8.252;2023-04-30T07:59:38;5.50;;;3.25;;
45842;SDS011;31563;51.744;8.252;2023-04-30T08:02:07;4.93;;;2.80;;
45842;SDS011;31563;51.744;8.252;2023-04-30T08:04:37;3.03;;;1.85;;
45842;SDS011;31563;51.744;8.252;2023-04-30T08:07:05;4.18;;;1.90;;
45842;SDS011;31563;51.744;8.252;2023-04-30T08:09:33;5.25;;;1.80;;
45842;SDS011;31563;51.744;8.252;2023-04-30T08:12:01;3.28;;;1.60;;
45842;SDS011;31563;51.744;8.252;2023-04-30T08:14:30;2.90;;;1.48;;
45842;SDS011;31563;51.744;8.252;2023-04-30T08:16:59;1.97;;;1.40;;
45842;SDS011;31563;51.744;8.252;2023-04-30T08:19:28;3.60;;;1.30;;
45842;SDS011;31563;51.744;8.252;2023-04-30T08:21:58;2.72;;;1.02;;
45842;SDS011;31563;51.744;8.252;2023-04-30T08:24:27;3.08;;;1.48;;
45842;SDS011;31563;51.744;8.252;2023-04-30T08:26:55;1.83;;;1.00;;
45842;SDS011;31563;51.744;8.252;2023-04-30T08:29:24;1.50;;;1.00;;
45842;SDS011;31563;51.744;8.252;2023-04-30T08:31:52;1.88;;;0.85;;
45842;SDS011;31563;51.744;8.252;2023-04-30T08:34:21;1.83;;;1.10;;
45842;SDS011;31563;51.744;8.252;2023-04-30T08:36:49;3.92;;;1.08;;
45842;SDS011;31563;51.744;8.252;2023-04-30T08:39:18;1.73;;;0.80;;
45842;SDS011;31563;51.744;8.252;2023-04-30T08:41:48;2.70;;;1.05;;
45842;SDS011;31563;51.744;8.252;2023-04-30T08:44:21;1.92;;;1.00;;
45842;SDS011;31563;51.744;8.252;2023-04-30T08:46:50;2.73;;;0.93;;
45842;SDS011;31563;51.744;8.252;2023-04-30T08:49:21;1.88;;;0.88;;
45842;SDS011;31563;51.744;8.252;2023-04-30T08:51:50;1.77;;;0.90;;
45842;SDS011;31563;51.744;8.252;2023-04-30T08:54:20;1.40;;;0.60;;
45842;SDS011;31563;51.744;8.252;2023-04-30T08:56:52;1.25;;;0.73;;
45842;SDS011;31563;51.744;8.252;2023-04-30T08:59:21;1.52;;;0.70;;
45842;SDS011;31563;51.744;8.252;2023-04-30T09:01:49;2.58;;;0.85;;
45842;SDS011;31563;51.744;8.252;2023-04-30T09:04:19;2.45;;;0.70;;
45842;SDS011;31563;51.744;8.252;2023-04-30T09:06:47;2.03;;;0.60;;
45842;SDS011;31563;51.744;8.252;2023-04-30T09:09:20;2.47;;;0.90;;
45842;SDS011;31563;51.744;8.252;2023-04-30T09:14:21;1.38;;;0.70;;
45842;SDS011;31563;51.744;8.252;2023-04-30T09:16:52;1.52;;;0.70;;
45842;SDS011;31563;51.744;8.252;2023-04-30T09:19:23;2.00;;;0.80;;
45842;SDS011;31563;51.744;8.252;2023-04-30T09:21:52;6.68;;;3.15;;
45842;SDS011;31563;51.744;8.252;2023-04-30T09:24:22;7.93;;;4.57;;
45842;SDS011;31563;51.744;8.252;2023-04-30T09:26:52;9.82;;;6.05;;
45842;SDS011;31563;51.744;8.252;2023-04-30T09:31:48;8.13;;;5.47;;
45842;SDS011;31563;51.744;8.252;2023-04-30T09:34:17;9.47;;;6.17;;
45842;SDS011;31563;51.744;8.252;2023-04-30T09:36:59;9.93;;;6.85;;
45842;SDS011;31563;51.744;8.252;2023-04-30T09:39:29;10.15;;;7.68;;
45842;SDS011;31563;51.744;8.252;2023-04-30T09:42:06;9.38;;;6.82;;
45842;SDS011;31563;51.744;8.252;2023-04-30T09:44:35;11.05;;;6.65;;
45842;SDS011;31563;51.744;8.252;2023-04-30T09:47:09;10.43;;;5.88;;
45842;SDS011;31563;51.744;8.252;2023-04-30T09:49:42;9.90;;;5.53;;
45842;SDS011;31563;51.744;8.252;2023-04-30T09:52:14;6.88;;;4.00;;
45842;SDS011;31563;51.744;8.252;2023-04-30T09:54:44;6.80;;;4.07;;
45842;SDS011;31563;51.744;8.252;2023-04-30T09:57:13;4.88;;;3.03;;
45842;SDS011;31563;51.744;8.252;2023-04-30T09:59:43;4.47;;;2.78;;
45842;SDS011;31563;51.744;8.252;2023-04-30T10:02:13;7.00;;;3.13;;
45842;SDS011;31563;51.744;8.252;2023-04-30T10:04:43;7.80;;;2.90;;
45842;SDS011;31563;51.744;8.252;2023-04-30T10:07:14;7.30;;;2.60;;
45842;SDS011;31563;51.744;8.252;2023-04-30T10:09:49;8.10;;;3.08;;
45842;SDS011;31563;51.744;8.252;2023-04-30T10:12:23;4.10;;;2.03;;
45842;SDS011;31563;51.744;8.252;2023-04-30T10:14:58;4.35;;;1.92;;
45842;SDS011;31563;51.744;8.252;2023-04-30T10:17:34;5.68;;;2.47;;
45842;SDS011;31563;51.744;8.252;2023-04-30T10:20:08;4.68;;;1.80;;
45842;SDS011;31563;51.744;8.252;2023-04-30T10:22:38;4.35;;;1.77;;
45842;SDS011;31563;51.744;8.252;2023-04-30T10:25:10;5.68;;;1.40;;
45842;SDS011;31563;51.744;8.252;2023-04-30T10:27:39;5.55;;;1.08;;
45842;SDS011;31563;51.744;8.252;2023-04-30T10:30:08;4.55;;;1.30;;
45842;SDS011;31563;51.744;8.252;2023-04-30T10:32:41;3.83;;;1.50;;
45842;SDS011;31563;51.744;8.252;2023-04-30T10:35:16;5.40;;;1.42;;
45842;SDS011;31563;51.744;8.252;2023-04-30T10:37:49;4.53;;;1.10;;
45842;SDS011;31563;51.744;8.252;2023-04-30T10:40:26;3.88;;;1.00;;
45842;SDS011;31563;51.744;8.252;2023-04-30T10:42:54;2.45;;;0.80;;
45842;SDS011;31563;51.744;8.252;2023-04-30T10:45:33;3.50;;;0.67;;
45842;SDS011;31563;51.744;8.252;2023-04-30T10:48:03;4.38;;;0.93;;
45842;SDS011;31563;51.744;8.252;2023-04-30T10:50:32;3.30;;;0.90;;
45842;SDS011;31563;51.744;8.252;2023-04-30T10:53:11;2.13;;;0.77;;
45842;SDS011;31563;51.744;8.252;2023-04-30T10:55:46;1.25;;;0.47;;
45842;SDS011;31563;51.744;8.252;2023-04-30T10:58:23;1.47;;;0.40;;
45842;SDS011;31563;51.744;8.252;2023-04-30T11:01:02;2.53;;;0.60;;
45842;SDS011;31563;51.744;8.252;2023-04-30T11:03:31;2.33;;;0.65;;
45842;SDS011;31563;51.744;8.252;2023-04-30T11:06:06;1.50;;;0.60;;
45842;SDS011;31563;51.744;8.252;2023-04-30T11:08:36;2.47;;;0.60;;
45842;SDS011;31563;51.744;8.252;2023-04-30T11:11:07;1.42;;;0.55;;
45842;SDS011;31563;51.744;8.252;2023-04-30T11:13:39;2.15;;;0.70;;
45842;SDS011;31563;51.744;8.252;2023-04-30T11:16:08;2.55;;;0.60;;
45842;SDS011;31563;51.744;8.252;2023-04-30T11:18:40;1.48;;;0.50;;
45842;SDS011;31563;51.744;8.252;2023-04-30T11:21:10;1.52;;;0.43;;
45842;SDS011;31563;51.744;8.252;2023-04-30T11:23:42;2.03;;;0.40;;
45842;SDS011;31563;51.744;8.252;2023-04-30T11:26:17;2.35;;;0.43;;
45842;SDS011;31563;51.744;8.252;2023-04-30T11:28:49;2.58;;;0.60;;
45842;SDS011;31563;51.744;8.252;2023-04-30T11:31:19;3.20;;;0.77;;
45842;SDS011;31563;51.744;8.252;2023-04-30T11:33:48;4.75;;;1.10;;
45842;SDS011;31563;51.744;8.252;2023-04-30T11:36:17;3.58;;;0.77;;
45842;SDS011;31563;51.744;8.252;2023-04-30T11:38:46;1.95;;;0.80;;
45842;SDS011;31563;51.744;8.252;2023-04-30T11:41:15;4.57;;;1.10;;
45842;SDS011;31563;51.744;8.252;2023-04-30T11:43:47;3.47;;;1.08;;
45842;SDS011;31563;51.744;8.252;2023-04-30T11:46:15;3.95;;;0.80;;
45842;SDS011;31563;51.744;8.252;2023-04-30T11:48:44;3.70;;;0.60;;
45842;SDS011;31563;51.744;8.252;2023-04-30T11:53:42;2.17;;;0.70;;
45842;SDS011;31563;51.744;8.252;2023-04-30T11:56:12;4.07;;;1.17;;
45842;SDS011;31563;51.744;8.252;2023-04-30T11:58:41;3.97;;;0.90;;
45842;SDS011;31563;51.744;8.252;2023-04-30T12:01:12;2.42;;;0.60;;
45842;SDS011;31563;51.744;8.252;2023-04-30T12:03:41;5.10;;;0.93;;
45842;SDS011;31563;51.744;8.252;2023-04-30T12:06:11;3.90;;;0.70;;
45842;SDS011;31563;51.744;8.252;2023-04-30T12:08:47;3.75;;;0.90;;
45842;SDS011;31563;51.744;8.252;2023-04-30T12:11:19;4.17;;;0.80;;
45842;SDS011;31563;51.744;8.252;2023-04-30T12:13:53;4.30;;;0.75;;
45842;SDS011;31563;51.744;8.252;2023-04-30T12:16:22;4.95;;;0.90;;
45842;SDS011;31563;51.744;8.252;2023-04-30T12:18:51;4.57;;;0.88;;
45842;SDS011;31563;51.744;8.252;2023-04-30T12:23:49;3.33;;;0.90;;
45842;SDS011;31563;51.744;8.252;2023-04-30T12:26:17;4.93;;;0.80;;
45842;SDS011;31563;51.744;8.252;2023-04-30T12:28:46;2.67;;;0.75;;
45842;SDS011;31563;51.744;8.252;2023-04-30T12:31:17;4.35;;;0.60;;
45842;SDS011;31563;51.744;8.252;2023-04-30T12:33:52;3.70;;;0.63;;
45842;SDS011;31563;51.744;8.252;2023-04-30T12:36:21;3.75;;;0.75;;
45842;SDS011;31563;51.744;8.252;2023-04-30T12:39:04;4.40;;;0.90;;
45842;SDS011;31563;51.744;8.252;2023-04-30T12:41:38;4.28;;;0.80;;
45842;SDS011;31563;51.744;8.252;2023-04-30T12:44:15;3.30;;;0.65;;
45842;SDS011;31563;51.744;8.252;2023-04-30T12:46:45;4.68;;;0.80;;
45842;SDS011;31563;51.744;8.252;2023-04-30T12:49:27;3.40;;;0.77;;
45842;SDS011;31563;51.744;8.252;2023-04-30T12:51:59;3.17;;;0.70;;
45842;SDS011;31563;51.744;8.252;2023-04-30T12:54:30;6.28;;;0.70;;
45842;SDS011;31563;51.744;8.252;2023-04-30T12:56:59;3.95;;;0.70;;
45842;SDS011;31563;51.744;8.252;2023-04-30T12:59:29;3.85;;;0.90;;
45842;SDS011;31563;51.744;8.252;2023-04-30T13:02:06;3.28;;;0.73;;
45842;SDS011;31563;51.744;8.252;2023-04-30T13:04:35;3.03;;;0.90;;
45842;SDS011;31563;51.744;8.252;2023-04-30T13:07:03;3.90;;;0.80;;
45842;SDS011;31563;51.744;8.252;2023-04-30T13:09:32;1.70;;;0.60;;
45842;SDS011;31563;51.744;8.252;2023-04-30T13:12:01;2.95;;;0.70;;
45842;SDS011;31563;51.744;8.252;2023-04-30T13:14:30;3.85;;;0.70;;
45842;SDS011;31563;51.744;8.252;2023-04-30T13:16:58;2.92;;;0.63;;
45842;SDS011;31563;51.744;8.252;2023-04-30T13:19:31;4.95;;;1.00;;
45842;SDS011;31563;51.744;8.252;2023-04-30T13:22:00;2.50;;;0.75;;
45842;SDS011;31563;51.744;8.252;2023-04-30T13:24:28;4.35;;;0.80;;
45842;SDS011;31563;51.744;8.252;2023-04-30T13:26:56;2.63;;;0.65;;
45842;SDS011;31563;51.744;8.252;2023-04-30T13:29:25;1.73;;;0.73;;
45842;SDS011;31563;51.744;8.252;2023-04-30T13:31:53;2.50;;;0.68;;
45842;SDS011;31563;51.744;8.252;2023-04-30T13:34:22;1.52;;;0.65;;
45842;SDS011;31563;51.744;8.252;2023-04-30T13:36:52;3.70;;;0.80;;
45842;SDS011;31563;51.744;8.252;2023-04-30T13:39:20;4.57;;;1.08;;
45842;SDS011;31563;51.744;8.252;2023-04-30T13:41:48;4.95;;;1.27;;
45842;SDS011;31563;51.744;8.252;2023-04-30T13:44:16;1.95;;;0.90;;
45842;SDS011;31563;51.744;8.252;2023-04-30T13:46:45;2.47;;;1.10;;
45842;SDS011;31563;51.744;8.252;2023-04-30T13:49:13;1.63;;;0.70;;
45842;SDS011;31563;51.744;8.252;2023-04-30T13:51:41;2.60;;;1.00;;
45842;SDS011;31563;51.744;8.252;2023-04-30T13:54:11;2.60;;;0.80;;
45842;SDS011;31563;51.744;8.252;2023-04-30T13:59:07;3.38;;;1.08;;
45842;SDS011;31563;51.744;8.252;2023-04-30T14:01:36;2.78;;;1.00;;
45842;SDS011;31563;51.744;8.252;2023-04-30T14:04:04;1.73;;;0.90;;
45842;SDS011;31563;51.744;8.252;2023-04-30T14:06:33;4.47;;;0.80;;
45842;SDS011;31563;51.744;8.252;2023-04-30T14:09:02;6.97;;;0.88;;
45842;SDS011;31563;51.744;8.252;2023-04-30T14:11:31;3.45;;;0.80;;
45842;SDS011;31563;51.744;8.252;2023-04-30T14:13:59;9.30;;;1.20;;
45842;SDS011;31563;51.744;8.252;2023-04-30T14:16:28;4.15;;;1.10;;
45842;SDS011;31563;51.744;8.252;2023-04-30T14:18:57;5.97;;;0.68;;
45842;SDS011;31563;51.744;8.252;2023-04-30T14:21:25;3.83;;;0.80;;
45842;SDS011;31563;51.744;8.252;2023-04-30T14:26:22;2.15;;;0.73;;
45842;SDS011;31563;51.744;8.252;2023-04-30T14:28:52;2.22;;;0.70;;
45842;SDS011;31563;51.744;8.252;2023-04-30T14:31:20;1.52;;;0.43;;
45842;SDS011;31563;51.744;8.252;2023-04-30T14:33:48;9.63;;;1.10;;
45842;SDS011;31563;51.744;8.252;2023-04-30T14:36:16;4.20;;;0.80;;
45842;SDS011;31563;51.744;8.252;2023-04-30T14:38:45;4.47;;;0.75;;
45842;SDS011;31563;51.744;8.252;2023-04-30T14:41:13;3.40;;;0.57;;
45842;SDS011;31563;51.744;8.252;2023-04-30T14:43:41;1.83;;;0.40;;
45842;SDS011;31563;51.744;8.252;2023-04-30T14:46:11;2.20;;;0.50;;
45842;SDS011;31563;51.744;8.252;2023-04-30T14:48:39;3.60;;;0.55;;
45842;SDS011;31563;51.744;8.252;2023-04-30T14:51:07;2.63;;;0.55;;
45842;SDS011;31563;51.744;8.252;2023-04-30T14:53:36;1.53;;;0.50;;
45842;SDS011;31563;51.744;8.252;2023-04-30T14:56:04;5.07;;;0.50;;
45842;SDS011;31563;51.744;8.252;2023-04-30T15:01:01;2.40;;;0.50;;
45842;SDS011;31563;51.744;8.252;2023-04-30T15:03:30;3.17;;;0.60;;
45842;SDS011;31563;51.744;8.252;2023-04-30T15:05:59;1.40;;;0.38;;
45842;SDS011;31563;51.744;8.252;2023-04-30T15:08:28;0.85;;;0.30;;
45842;SDS011;31563;51.744;8.252;2023-04-30T15:10:56;2.57;;;0.30;;
45842;SDS011;31563;51.744;8.252;2023-04-30T15:13:24;3.37;;;0.40;;
45842;SDS011;31563;51.744;8.252;2023-04-30T15:15:53;2.70;;;0.20;;
45842;SDS011;31563;51.744;8.252;2023-04-30T15:18:21;2.83;;;0.30;;
45842;SDS011;31563;51.744;8.252;2023-04-30T15:20:50;1.33;;;0.20;;
45842;SDS011;31563;51.744;8.252;2023-04-30T15:23:19;4.47;;;0.45;;
45842;SDS011;31563;51.744;8.252;2023-04-30T15:25:47;1.80;;;0.40;;
45842;SDS011;31563;51.744;8.252;2023-04-30T15:28:15;2.22;;;0.38;;
45842;SDS011;31563;51.744;8.252;2023-04-30T15:30:44;1.73;;;0.47;;